sensor_id;sensor_type;location;lat;lon;timestamp;temperature;humidity
18365;DHT22;9309;52.126;11.616;2023-06-24T00:00:37;16.50;92.80
18365;DHT22;9309;52.126;11.616;2023-06-24T00:03:05;16.40;92.90
18365;DHT22;9309;52.126;11.616;2023-06-24T00:05:32;16.40;92.70
18365;DHT22;9309;52.126;11.616;2023-06-24T00:07:59;16.40;92.60
18365;DHT22;9309;52.126;11.616;2023-06-24T00:10:27;16.40;92.30
18365;DHT22;9309;52.126;11.616;2023-06-24T00:12:54;16.30;92.60
18365;DHT22;9309;52.126;11.616;2023-06-24T00:15:21;16.30;92.10
18365;DHT22;9309;52.126;11.616;2023-06-24T00:17:47;16.30;92.00
18365;DHT22;9309;52.126;11.616;2023-06-24T00:20:16;16.20;91.70
18365;DHT22;9309;52.126;11.616;2023-06-24T00:22:45;16.30;91.30
18365;DHT22;9309;52.126;11.616;2023-06-24T00:25:13;16.30;90.50
18365;DHT22;9309;52.126;11.616;2023-06-24T00:27:40;16.30;90.10
18365;DHT22;9309;52.126;11.616;2023-06-24T00:30:08;16.20;89.90
18365;DHT22;9309;52.126;11.616;2023-06-24T00:32:34;16.20;89.30
18365;DHT22;9309;52.126;11.616;2023-06-24T00:35:01;16.00;89.20
18365;DHT22;9309;52.126;11.616;2023-06-24T00:37:30;16.10;87.90
18365;DHT22;9309;52.126;11.616;2023-06-24T00:39:56;16.00;88.20
18365;DHT22;9309;52.126;11.616;2023-06-24T00:42:23;15.90;87.70
18365;DHT22;9309;52.126;11.616;2023-06-24T00:44:50;15.90;86.50
18365;DHT22;9309;52.126;11.616;2023-06-24T00:47:17;15.80;86.00
18365;DHT22;9309;52.126;11.616;2023-06-24T00:49:44;15.80;85.30
18365;DHT22;9309;52.126;11.616;2023-06-24T00:52:10;15.90;83.70
18365;DHT22;9309;52.126;11.616;2023-06-24T00:54:42;15.80;83.80
18365;DHT22;9309;52.126;11.616;2023-06-24T00:57:09;15.70;83.00
18365;DHT22;9309;52.126;11.616;2023-06-24T00:59:35;15.60;83.20
18365;DHT22;9309;52.126;11.616;2023-06-24T01:02:02;15.60;82.90
18365;DHT22;9309;52.126;11.616;2023-06-24T01:04:33;15.50;83.50
18365;DHT22;9309;52.126;11.616;2023-06-24T01:06:59;15.40;83.50
18365;DHT22;9309;52.126;11.616;2023-06-24T01:09:26;15.50;83.20
18365;DHT22;9309;52.126;11.616;2023-06-24T01:11:55;15.40;84.10
18365;DHT22;9309;52.126;11.616;2023-06-24T01:14:21;15.40;84.60
18365;DHT22;9309;52.126;11.616;2023-06-24T01:16:50;15.20;85.00
18365;DHT22;9309;52.126;11.616;2023-06-24T01:19:23;15.10;85.20
18365;DHT22;9309;52.126;11.616;2023-06-24T01:21:58;15.10;86.80
18365;DHT22;9309;52.126;11.616;2023-06-24T01:24:33;15.00;86.80
18365;DHT22;9309;52.126;11.616;2023-06-24T01:27:10;15.00;86.70
18365;DHT22;9309;52.126;11.616;2023-06-24T01:29:48;15.10;86.40
18365;DHT22;9309;52.126;11.616;2023-06-24T01:32:23;15.10;86.20
18365;DHT22;9309;52.126;11.616;2023-06-24T01:34:56;15.10;86.70
18365;DHT22;9309;52.126;11.616;2023-06-24T01:37:25;15.10;86.60
18365;DHT22;9309;52.126;11.616;2023-06-24T01:39:52;15.10;86.80
18365;DHT22;9309;52.126;11.616;2023-06-24T01:42:22;15.00;87.00
18365;DHT22;9309;52.126;11.616;2023-06-24T01:44:49;14.90;88.20
18365;DHT22;9309;52.126;11.616;2023-06-24T01:47:16;14.90;88.10
18365;DHT22;9309;52.126;11.616;2023-06-24T01:49:46;14.90;88.20
18365;DHT22;9309;52.126;11.616;2023-06-24T01:52:13;14.90;88.50
18365;DHT22;9309;52.126;11.616;2023-06-24T01:54:39;14.80;88.60
18365;DHT22;9309;52.126;11.616;2023-06-24T01:57:08;14.80;88.70
18365;DHT22;9309;52.126;11.616;2023-06-24T01:59:35;14.70;89.00
18365;DHT22;9309;52.126;11.616;2023-06-24T02:02:03;14.70;89.00
18365;DHT22;9309;52.126;11.616;2023-06-24T02:04:31;14.80;88.80
18365;DHT22;9309;52.126;11.616;2023-06-24T02:06:59;14.80;88.70
18365;DHT22;9309;52.126;11.616;2023-06-24T02:09:26;14.70;88.70
18365;DHT22;9309;52.126;11.616;2023-06-24T02:11:56;14.70;88.50
18365;DHT22;9309;52.126;11.616;2023-06-24T02:14:23;14.70;88.90
18365;DHT22;9309;52.126;11.616;2023-06-24T02:16:50;14.60;89.00
18365;DHT22;9309;52.126;11.616;2023-06-24T02:19:22;14.50;89.50
18365;DHT22;9309;52.126;11.616;2023-06-24T02:21:49;14.50;89.30
18365;DHT22;9309;52.126;11.616;2023-06-24T02:24:18;14.60;88.70
18365;DHT22;9309;52.126;11.616;2023-06-24T02:26:45;14.50;88.60
18365;DHT22;9309;52.126;11.616;2023-06-24T02:29:12;14.50;88.80
18365;DHT22;9309;52.126;11.616;2023-06-24T02:31:39;14.50;88.90
18365;DHT22;9309;52.126;11.616;2023-06-24T02:34:06;14.40;88.60
18365;DHT22;9309;52.126;11.616;2023-06-24T02:36:35;14.30;88.90
18365;DHT22;9309;52.126;11.616;2023-06-24T02:39:01;14.30;89.60
18365;DHT22;9309;52.126;11.616;2023-06-24T02:41:30;14.30;89.30
18365;DHT22;9309;52.126;11.616;2023-06-24T02:43:57;14.20;89.10
18365;DHT22;9309;52.126;11.616;2023-06-24T02:46:23;14.20;90.00
18365;DHT22;9309;52.126;11.616;2023-06-24T02:48:50;14.20;89.50
18365;DHT22;9309;52.126;11.616;2023-06-24T02:51:17;14.20;90.00
18365;DHT22;9309;52.126;11.616;2023-06-24T02:53:45;14.30;89.80
18365;DHT22;9309;52.126;11.616;2023-06-24T02:56:12;14.30;89.70
18365;DHT22;9309;52.126;11.616;2023-06-24T02:58:42;14.30;89.50
18365;DHT22;9309;52.126;11.616;2023-06-24T03:01:18;14.30;89.60
18365;DHT22;9309;52.126;11.616;2023-06-24T03:03:51;14.20;90.30
18365;DHT22;9309;52.126;11.616;2023-06-24T03:06:19;14.10;90.80
18365;DHT22;9309;52.126;11.616;2023-06-24T03:08:47;14.10;90.70
18365;DHT22;9309;52.126;11.616;2023-06-24T03:11:15;14.10;90.70
18365;DHT22;9309;52.126;11.616;2023-06-24T03:13:43;14.10;90.90
18365;DHT22;9309;52.126;11.616;2023-06-24T03:16:22;14.20;90.50
18365;DHT22;9309;52.126;11.616;2023-06-24T03:19:14;14.20;90.00
18365;DHT22;9309;52.126;11.616;2023-06-24T03:21:42;14.20;90.90
18365;DHT22;9309;52.126;11.616;2023-06-24T03:24:13;14.10;90.90
18365;DHT22;9309;52.126;11.616;2023-06-24T03:26:42;14.20;90.90
18365;DHT22;9309;52.126;11.616;2023-06-24T03:29:13;14.30;91.30
18365;DHT22;9309;52.126;11.616;2023-06-24T03:31:53;14.40;90.10
18365;DHT22;9309;52.126;11.616;2023-06-24T03:34:22;14.50;89.40
18365;DHT22;9309;52.126;11.616;2023-06-24T03:36:51;14.50;89.30
18365;DHT22;9309;52.126;11.616;2023-06-24T03:39:19;14.50;89.10
18365;DHT22;9309;52.126;11.616;2023-06-24T03:41:46;14.50;89.00
18365;DHT22;9309;52.126;11.616;2023-06-24T03:44:15;14.60;89.10
18365;DHT22;9309;52.126;11.616;2023-06-24T03:46:42;14.60;89.20
18365;DHT22;9309;52.126;11.616;2023-06-24T03:49:10;14.60;89.20
18365;DHT22;9309;52.126;11.616;2023-06-24T03:51:37;14.70;88.60
18365;DHT22;9309;52.126;11.616;2023-06-24T03:54:03;14.70;88.70
18365;DHT22;9309;52.126;11.616;2023-06-24T03:56:30;14.80;87.50
18365;DHT22;9309;52.126;11.616;2023-06-24T03:58:56;14.70;88.20
18365;DHT22;9309;52.126;11.616;2023-06-24T04:01:26;14.70;87.80
18365;DHT22;9309;52.126;11.616;2023-06-24T04:03:57;14.60;88.50
18365;DHT22;9309;52.126;11.616;2023-06-24T04:06:23;14.60;88.60
18365;DHT22;9309;52.126;11.616;2023-06-24T04:08:51;14.50;88.90
18365;DHT22;9309;52.126;11.616;2023-06-24T04:11:18;14.50;89.00
18365;DHT22;9309;52.126;11.616;2023-06-24T04:13:45;14.60;89.00
18365;DHT22;9309;52.126;11.616;2023-06-24T04:16:30;14.70;88.10
18365;DHT22;9309;52.126;11.616;2023-06-24T04:18:57;14.80;87.60
18365;DHT22;9309;52.126;11.616;2023-06-24T04:21:24;14.80;88.10
18365;DHT22;9309;52.126;11.616;2023-06-24T04:23:51;14.80;87.70
18365;DHT22;9309;52.126;11.616;2023-06-24T04:26:17;14.80;87.80
18365;DHT22;9309;52.126;11.616;2023-06-24T04:28:44;14.70;88.20
18365;DHT22;9309;52.126;11.616;2023-06-24T04:31:10;14.80;88.30
18365;DHT22;9309;52.126;11.616;2023-06-24T04:33:39;15.00;88.00
18365;DHT22;9309;52.126;11.616;2023-06-24T04:36:06;15.00;88.00
18365;DHT22;9309;52.126;11.616;2023-06-24T04:38:34;15.00;87.60
18365;DHT22;9309;52.126;11.616;2023-06-24T04:41:01;15.10;88.10
18365;DHT22;9309;52.126;11.616;2023-06-24T04:43:27;15.30;86.90
18365;DHT22;9309;52.126;11.616;2023-06-24T04:45:54;15.50;86.80
18365;DHT22;9309;52.126;11.616;2023-06-24T04:48:22;15.60;86.70
18365;DHT22;9309;52.126;11.616;2023-06-24T04:50:50;15.70;86.00
18365;DHT22;9309;52.126;11.616;2023-06-24T04:53:18;15.80;86.00
18365;DHT22;9309;52.126;11.616;2023-06-24T04:55:45;15.60;86.70
18365;DHT22;9309;52.126;11.616;2023-06-24T04:58:12;15.40;88.20
18365;DHT22;9309;52.126;11.616;2023-06-24T05:00:38;15.50;87.60
18365;DHT22;9309;52.126;11.616;2023-06-24T05:03:05;15.60;87.50
18365;DHT22;9309;52.126;11.616;2023-06-24T05:05:32;15.50;87.40
18365;DHT22;9309;52.126;11.616;2023-06-24T05:08:00;15.50;87.80
18365;DHT22;9309;52.126;11.616;2023-06-24T05:10:27;15.50;87.80
18365;DHT22;9309;52.126;11.616;2023-06-24T05:12:54;15.60;87.40
18365;DHT22;9309;52.126;11.616;2023-06-24T05:15:21;15.60;87.10
18365;DHT22;9309;52.126;11.616;2023-06-24T05:17:48;15.60;87.10
18365;DHT22;9309;52.126;11.616;2023-06-24T05:20:14;15.60;87.00
18365;DHT22;9309;52.126;11.616;2023-06-24T05:22:43;15.60;87.10
18365;DHT22;9309;52.126;11.616;2023-06-24T05:25:11;15.60;87.30
18365;DHT22;9309;52.126;11.616;2023-06-24T05:27:39;15.60;88.10
18365;DHT22;9309;52.126;11.616;2023-06-24T05:30:07;15.70;87.10
18365;DHT22;9309;52.126;11.616;2023-06-24T05:32:34;15.70;87.00
18365;DHT22;9309;52.126;11.616;2023-06-24T05:35:00;15.70;87.40
18365;DHT22;9309;52.126;11.616;2023-06-24T05:37:27;15.80;87.80
18365;DHT22;9309;52.126;11.616;2023-06-24T05:39:54;15.90;87.40
18365;DHT22;9309;52.126;11.616;2023-06-24T05:42:23;16.00;86.80
18365;DHT22;9309;52.126;11.616;2023-06-24T05:44:51;16.10;86.40
18365;DHT22;9309;52.126;11.616;2023-06-24T05:47:18;16.20;85.10
18365;DHT22;9309;52.126;11.616;2023-06-24T05:49:45;16.10;86.10
18365;DHT22;9309;52.126;11.616;2023-06-24T05:52:11;16.00;87.20
18365;DHT22;9309;52.126;11.616;2023-06-24T05:54:38;16.00;87.00
18365;DHT22;9309;52.126;11.616;2023-06-24T05:57:05;16.20;85.80
18365;DHT22;9309;52.126;11.616;2023-06-24T05:59:33;16.30;85.50
18365;DHT22;9309;52.126;11.616;2023-06-24T06:02:00;16.40;85.10
18365;DHT22;9309;52.126;11.616;2023-06-24T06:04:27;16.50;84.60
18365;DHT22;9309;52.126;11.616;2023-06-24T06:06:54;16.60;84.90
18365;DHT22;9309;52.126;11.616;2023-06-24T06:09:22;16.70;84.20
18365;DHT22;9309;52.126;11.616;2023-06-24T06:11:48;16.70;84.60
18365;DHT22;9309;52.126;11.616;2023-06-24T06:14:15;16.80;83.80
18365;DHT22;9309;52.126;11.616;2023-06-24T06:16:43;17.00;83.90
18365;DHT22;9309;52.126;11.616;2023-06-24T06:19:11;17.20;83.50
18365;DHT22;9309;52.126;11.616;2023-06-24T06:21:38;17.30;82.00
18365;DHT22;9309;52.126;11.616;2023-06-24T06:24:06;17.40;81.30
18365;DHT22;9309;52.126;11.616;2023-06-24T06:26:32;17.30;81.60
18365;DHT22;9309;52.126;11.616;2023-06-24T06:28:59;17.30;81.90
18365;DHT22;9309;52.126;11.616;2023-06-24T06:31:25;17.20;82.60
18365;DHT22;9309;52.126;11.616;2023-06-24T06:33:53;17.30;81.50
18365;DHT22;9309;52.126;11.616;2023-06-24T06:36:20;17.30;82.40
18365;DHT22;9309;52.126;11.616;2023-06-24T06:38:47;17.30;81.60
18365;DHT22;9309;52.126;11.616;2023-06-24T06:41:14;17.20;81.40
18365;DHT22;9309;52.126;11.616;2023-06-24T06:43:41;17.10;82.70
18365;DHT22;9309;52.126;11.616;2023-06-24T06:46:08;17.00;82.90
18365;DHT22;9309;52.126;11.616;2023-06-24T06:48:34;17.10;83.30
18365;DHT22;9309;52.126;11.616;2023-06-24T06:51:02;17.40;82.50
18365;DHT22;9309;52.126;11.616;2023-06-24T06:53:29;17.40;81.80
18365;DHT22;9309;52.126;11.616;2023-06-24T06:55:56;17.60;81.70
18365;DHT22;9309;52.126;11.616;2023-06-24T06:58:23;17.50;82.30
18365;DHT22;9309;52.126;11.616;2023-06-24T07:00:50;17.60;82.10
18365;DHT22;9309;52.126;11.616;2023-06-24T07:03:17;17.80;79.30
18365;DHT22;9309;52.126;11.616;2023-06-24T07:05:44;17.90;79.20
18365;DHT22;9309;52.126;11.616;2023-06-24T07:08:13;18.10;77.80
18365;DHT22;9309;52.126;11.616;2023-06-24T07:10:39;17.90;79.20
18365;DHT22;9309;52.126;11.616;2023-06-24T07:13:06;17.60;79.70
18365;DHT22;9309;52.126;11.616;2023-06-24T07:15:33;17.70;80.70
18365;DHT22;9309;52.126;11.616;2023-06-24T07:17:59;18.00;79.90
18365;DHT22;9309;52.126;11.616;2023-06-24T07:20:26;18.30;79.30
18365;DHT22;9309;52.126;11.616;2023-06-24T07:22:53;18.20;77.80
18365;DHT22;9309;52.126;11.616;2023-06-24T07:25:21;18.00;78.80
18365;DHT22;9309;52.126;11.616;2023-06-24T07:27:47;17.90;79.00
18365;DHT22;9309;52.126;11.616;2023-06-24T07:30:14;18.00;78.10
18365;DHT22;9309;52.126;11.616;2023-06-24T07:32:40;18.10;78.00
18365;DHT22;9309;52.126;11.616;2023-06-24T07:35:08;18.30;77.70
18365;DHT22;9309;52.126;11.616;2023-06-24T07:37:35;18.80;76.10
18365;DHT22;9309;52.126;11.616;2023-06-24T07:40:01;18.80;73.60
18365;DHT22;9309;52.126;11.616;2023-06-24T07:42:32;18.50;74.10
18365;DHT22;9309;52.126;11.616;2023-06-24T07:44:58;18.40;75.80
18365;DHT22;9309;52.126;11.616;2023-06-24T07:47:25;18.50;75.60
18365;DHT22;9309;52.126;11.616;2023-06-24T07:49:52;18.80;74.80
18365;DHT22;9309;52.126;11.616;2023-06-24T07:52:19;18.90;71.70
18365;DHT22;9309;52.126;11.616;2023-06-24T07:54:46;18.70;72.40
18365;DHT22;9309;52.126;11.616;2023-06-24T07:57:13;18.40;74.60
18365;DHT22;9309;52.126;11.616;2023-06-24T07:59:41;18.50;75.70
18365;DHT22;9309;52.126;11.616;2023-06-24T08:02:08;18.50;73.80
18365;DHT22;9309;52.126;11.616;2023-06-24T08:04:35;18.50;74.50
18365;DHT22;9309;52.126;11.616;2023-06-24T08:07:02;18.50;75.20
18365;DHT22;9309;52.126;11.616;2023-06-24T08:09:29;18.70;72.10
18365;DHT22;9309;52.126;11.616;2023-06-24T08:11:56;18.70;70.90
18365;DHT22;9309;52.126;11.616;2023-06-24T08:14:22;18.90;72.50
18365;DHT22;9309;52.126;11.616;2023-06-24T08:16:51;19.20;71.60
18365;DHT22;9309;52.126;11.616;2023-06-24T08:19:17;19.20;70.90
18365;DHT22;9309;52.126;11.616;2023-06-24T08:21:44;19.30;70.50
18365;DHT22;9309;52.126;11.616;2023-06-24T08:24:11;19.10;71.90
18365;DHT22;9309;52.126;11.616;2023-06-24T08:26:38;19.20;70.00
18365;DHT22;9309;52.126;11.616;2023-06-24T08:29:04;19.30;69.60
18365;DHT22;9309;52.126;11.616;2023-06-24T08:31:32;19.30;68.40
18365;DHT22;9309;52.126;11.616;2023-06-24T08:34:00;19.30;69.50
18365;DHT22;9309;52.126;11.616;2023-06-24T08:36:28;19.40;70.50
18365;DHT22;9309;52.126;11.616;2023-06-24T08:38:55;19.60;69.60
18365;DHT22;9309;52.126;11.616;2023-06-24T08:41:22;19.80;67.60
18365;DHT22;9309;52.126;11.616;2023-06-24T08:43:50;19.60;66.70
18365;DHT22;9309;52.126;11.616;2023-06-24T08:46:17;19.40;66.60
18365;DHT22;9309;52.126;11.616;2023-06-24T08:48:44;19.40;67.50
18365;DHT22;9309;52.126;11.616;2023-06-24T08:51:13;19.40;67.50
18365;DHT22;9309;52.126;11.616;2023-06-24T08:53:42;19.60;67.90
18365;DHT22;9309;52.126;11.616;2023-06-24T08:56:09;19.60;69.40
18365;DHT22;9309;52.126;11.616;2023-06-24T08:58:36;19.80;68.80
18365;DHT22;9309;52.126;11.616;2023-06-24T09:01:03;20.00;67.10
18365;DHT22;9309;52.126;11.616;2023-06-24T09:03:30;19.90;66.80
18365;DHT22;9309;52.126;11.616;2023-06-24T09:05:57;20.00;65.80
18365;DHT22;9309;52.126;11.616;2023-06-24T09:08:25;19.80;65.80
18365;DHT22;9309;52.126;11.616;2023-06-24T09:10:52;19.80;64.80
18365;DHT22;9309;52.126;11.616;2023-06-24T09:13:19;19.90;62.30
18365;DHT22;9309;52.126;11.616;2023-06-24T09:15:45;19.90;63.20
18365;DHT22;9309;52.126;11.616;2023-06-24T09:18:12;19.90;65.10
18365;DHT22;9309;52.126;11.616;2023-06-24T09:20:42;20.10;66.00
18365;DHT22;9309;52.126;11.616;2023-06-24T09:23:10;20.20;65.30
18365;DHT22;9309;52.126;11.616;2023-06-24T09:25:38;20.20;63.90
18365;DHT22;9309;52.126;11.616;2023-06-24T09:28:04;20.30;65.40
18365;DHT22;9309;52.126;11.616;2023-06-24T09:30:31;20.50;64.30
18365;DHT22;9309;52.126;11.616;2023-06-24T09:32:58;20.70;61.90
18365;DHT22;9309;52.126;11.616;2023-06-24T09:35:25;20.60;60.30
18365;DHT22;9309;52.126;11.616;2023-06-24T09:37:51;20.60;60.90
18365;DHT22;9309;52.126;11.616;2023-06-24T09:40:18;20.80;62.70
18365;DHT22;9309;52.126;11.616;2023-06-24T09:42:50;20.90;62.10
18365;DHT22;9309;52.126;11.616;2023-06-24T09:45:19;21.00;61.40
18365;DHT22;9309;52.126;11.616;2023-06-24T09:47:45;21.00;64.10
18365;DHT22;9309;52.126;11.616;2023-06-24T09:50:12;21.00;63.30
18365;DHT22;9309;52.126;11.616;2023-06-24T09:52:39;21.00;61.10
18365;DHT22;9309;52.126;11.616;2023-06-24T09:55:05;21.10;60.00
18365;DHT22;9309;52.126;11.616;2023-06-24T09:57:33;21.00;61.50
18365;DHT22;9309;52.126;11.616;2023-06-24T10:00:03;21.40;60.30
18365;DHT22;9309;52.126;11.616;2023-06-24T10:02:31;21.90;57.90
18365;DHT22;9309;52.126;11.616;2023-06-24T10:04:58;22.00;55.80
18365;DHT22;9309;52.126;11.616;2023-06-24T10:07:25;21.70;58.40
18365;DHT22;9309;52.126;11.616;2023-06-24T10:09:53;21.60;59.90
18365;DHT22;9309;52.126;11.616;2023-06-24T10:12:20;21.60;60.30
18365;DHT22;9309;52.126;11.616;2023-06-24T10:14:46;21.80;59.50
18365;DHT22;9309;52.126;11.616;2023-06-24T10:17:14;22.10;57.50
18365;DHT22;9309;52.126;11.616;2023-06-24T10:19:41;22.40;56.80
18365;DHT22;9309;52.126;11.616;2023-06-24T10:22:08;22.50;55.90
18365;DHT22;9309;52.126;11.616;2023-06-24T10:24:36;22.60;56.60
18365;DHT22;9309;52.126;11.616;2023-06-24T10:27:05;22.70;54.70
18365;DHT22;9309;52.126;11.616;2023-06-24T10:29:35;23.10;54.10
18365;DHT22;9309;52.126;11.616;2023-06-24T10:32:02;24.30;51.90
18365;DHT22;9309;52.126;11.616;2023-06-24T10:34:41;26.90;47.00
18365;DHT22;9309;52.126;11.616;2023-06-24T10:37:09;30.30;40.20
18365;DHT22;9309;52.126;11.616;2023-06-24T10:39:37;31.20;36.60
18365;DHT22;9309;52.126;11.616;2023-06-24T10:44:50;33.00;34.30
18365;DHT22;9309;52.126;11.616;2023-06-24T10:47:17;33.60;33.30
18365;DHT22;9309;52.126;11.616;2023-06-24T10:49:45;34.40;31.50
18365;DHT22;9309;52.126;11.616;2023-06-24T10:52:13;34.70;30.80
18365;DHT22;9309;52.126;11.616;2023-06-24T10:54:41;35.30;30.50
18365;DHT22;9309;52.126;11.616;2023-06-24T10:57:09;37.10;28.50
18365;DHT22;9309;52.126;11.616;2023-06-24T10:59:39;37.60;26.80
18365;DHT22;9309;52.126;11.616;2023-06-24T11:02:07;37.10;27.60
18365;DHT22;9309;52.126;11.616;2023-06-24T11:04:34;36.40;28.90
18365;DHT22;9309;52.126;11.616;2023-06-24T11:07:09;35.30;30.30
18365;DHT22;9309;52.126;11.616;2023-06-24T11:09:36;35.10;32.10
18365;DHT22;9309;52.126;11.616;2023-06-24T11:12:03;35.70;30.00
18365;DHT22;9309;52.126;11.616;2023-06-24T11:14:32;35.30;29.50
18365;DHT22;9309;52.126;11.616;2023-06-24T11:17:01;35.70;30.40
18365;DHT22;9309;52.126;11.616;2023-06-24T11:19:29;36.00;28.90
18365;DHT22;9309;52.126;11.616;2023-06-24T11:21:59;34.90;30.30
18365;DHT22;9309;52.126;11.616;2023-06-24T11:24:28;35.20;30.10
18365;DHT22;9309;52.126;11.616;2023-06-24T11:26:55;36.40;28.70
18365;DHT22;9309;52.126;11.616;2023-06-24T11:29:22;36.50;28.30
18365;DHT22;9309;52.126;11.616;2023-06-24T11:31:49;37.10;28.00
18365;DHT22;9309;52.126;11.616;2023-06-24T11:34:16;37.10;28.70
18365;DHT22;9309;52.126;11.616;2023-06-24T11:36:43;38.70;26.40
18365;DHT22;9309;52.126;11.616;2023-06-24T11:39:20;39.80;25.30
18365;DHT22;9309;52.126;11.616;2023-06-24T11:41:48;40.40;25.50
18365;DHT22;9309;52.126;11.616;2023-06-24T11:44:16;41.30;23.40
18365;DHT22;9309;52.126;11.616;2023-06-24T11:46:43;40.80;24.60
18365;DHT22;9309;52.126;11.616;2023-06-24T11:49:10;40.80;24.20
18365;DHT22;9309;52.126;11.616;2023-06-24T11:51:37;39.40;25.70
18365;DHT22;9309;52.126;11.616;2023-06-24T11:54:13;37.10;27.10
18365;DHT22;9309;52.126;11.616;2023-06-24T11:56:41;35.10;29.70
18365;DHT22;9309;52.126;11.616;2023-06-24T11:59:16;36.20;29.00
18365;DHT22;9309;52.126;11.616;2023-06-24T12:01:43;38.50;28.40
18365;DHT22;9309;52.126;11.616;2023-06-24T12:04:10;40.10;25.90
18365;DHT22;9309;52.126;11.616;2023-06-24T12:06:37;39.90;25.00
18365;DHT22;9309;52.126;11.616;2023-06-24T12:09:03;40.00;24.60
18365;DHT22;9309;52.126;11.616;2023-06-24T12:11:30;39.70;24.80
18365;DHT22;9309;52.126;11.616;2023-06-24T12:13:56;40.50;24.00
18365;DHT22;9309;52.126;11.616;2023-06-24T12:16:24;38.50;25.90
18365;DHT22;9309;52.126;11.616;2023-06-24T12:18:52;37.40;27.10
18365;DHT22;9309;52.126;11.616;2023-06-24T12:21:18;36.90;27.60
18365;DHT22;9309;52.126;11.616;2023-06-24T12:23:45;38.30;25.80
18365;DHT22;9309;52.126;11.616;2023-06-24T12:26:12;38.40;26.90
18365;DHT22;9309;52.126;11.616;2023-06-24T12:28:38;39.10;25.40
18365;DHT22;9309;52.126;11.616;2023-06-24T12:31:05;39.60;25.40
18365;DHT22;9309;52.126;11.616;2023-06-24T12:33:33;38.80;25.90
18365;DHT22;9309;52.126;11.616;2023-06-24T12:36:00;39.00;25.10
18365;DHT22;9309;52.126;11.616;2023-06-24T12:38:26;38.50;27.10
18365;DHT22;9309;52.126;11.616;2023-06-24T12:40:53;39.20;26.00
18365;DHT22;9309;52.126;11.616;2023-06-24T12:43:20;38.60;25.60
18365;DHT22;9309;52.126;11.616;2023-06-24T12:45:47;38.70;26.80
18365;DHT22;9309;52.126;11.616;2023-06-24T12:48:13;39.20;24.40
18365;DHT22;9309;52.126;11.616;2023-06-24T12:50:41;38.60;25.60
18365;DHT22;9309;52.126;11.616;2023-06-24T12:53:08;38.10;26.70
18365;DHT22;9309;52.126;11.616;2023-06-24T12:55:38;39.60;25.70
18365;DHT22;9309;52.126;11.616;2023-06-24T12:58:05;40.90;24.40
18365;DHT22;9309;52.126;11.616;2023-06-24T13:00:32;40.40;23.90
18365;DHT22;9309;52.126;11.616;2023-06-24T13:02:58;39.30;24.60
18365;DHT22;9309;52.126;11.616;2023-06-24T13:05:25;39.50;25.00
18365;DHT22;9309;52.126;11.616;2023-06-24T13:07:53;40.00;24.80
18365;DHT22;9309;52.126;11.616;2023-06-24T13:10:20;37.80;26.00
18365;DHT22;9309;52.126;11.616;2023-06-24T13:12:47;37.40;26.70
18365;DHT22;9309;52.126;11.616;2023-06-24T13:15:14;39.10;25.30
18365;DHT22;9309;52.126;11.616;2023-06-24T13:17:41;38.50;25.70
18365;DHT22;9309;52.126;11.616;2023-06-24T13:20:08;38.80;25.20
18365;DHT22;9309;52.126;11.616;2023-06-24T13:22:35;39.40;25.10
18365;DHT22;9309;52.126;11.616;2023-06-24T13:25:03;41.00;23.70
18365;DHT22;9309;52.126;11.616;2023-06-24T13:27:30;40.90;24.20
18365;DHT22;9309;52.126;11.616;2023-06-24T13:29:56;42.10;23.80
18365;DHT22;9309;52.126;11.616;2023-06-24T13:32:23;43.20;21.60
18365;DHT22;9309;52.126;11.616;2023-06-24T13:34:50;41.50;22.70
18365;DHT22;9309;52.126;11.616;2023-06-24T13:37:16;40.40;23.50
18365;DHT22;9309;52.126;11.616;2023-06-24T13:39:43;37.90;25.80
18365;DHT22;9309;52.126;11.616;2023-06-24T13:42:11;37.00;27.30
18365;DHT22;9309;52.126;11.616;2023-06-24T13:44:37;37.00;26.80
18365;DHT22;9309;52.126;11.616;2023-06-24T13:47:04;36.90;27.20
18365;DHT22;9309;52.126;11.616;2023-06-24T13:49:31;36.70;27.00
18365;DHT22;9309;52.126;11.616;2023-06-24T13:51:57;37.70;26.30
18365;DHT22;9309;52.126;11.616;2023-06-24T13:54:24;36.50;28.10
18365;DHT22;9309;52.126;11.616;2023-06-24T13:56:52;36.70;27.30
18365;DHT22;9309;52.126;11.616;2023-06-24T13:59:20;37.30;26.70
18365;DHT22;9309;52.126;11.616;2023-06-24T14:01:47;36.50;28.40
18365;DHT22;9309;52.126;11.616;2023-06-24T14:04:13;36.00;28.10
18365;DHT22;9309;52.126;11.616;2023-06-24T14:06:40;37.30;27.10
18365;DHT22;9309;52.126;11.616;2023-06-24T14:09:08;37.30;27.10
18365;DHT22;9309;52.126;11.616;2023-06-24T14:11:35;37.00;27.20
18365;DHT22;9309;52.126;11.616;2023-06-24T14:14:01;37.00;28.10
18365;DHT22;9309;52.126;11.616;2023-06-24T14:16:29;36.20;29.10
18365;DHT22;9309;52.126;11.616;2023-06-24T14:18:56;35.50;29.50
18365;DHT22;9309;52.126;11.616;2023-06-24T14:21:22;35.50;29.70
18365;DHT22;9309;52.126;11.616;2023-06-24T14:23:49;35.60;30.00
18365;DHT22;9309;52.126;11.616;2023-06-24T14:26:16;35.80;29.90
18365;DHT22;9309;52.126;11.616;2023-06-24T14:28:42;34.20;30.10
18365;DHT22;9309;52.126;11.616;2023-06-24T14:31:09;32.70;32.80
18365;DHT22;9309;52.126;11.616;2023-06-24T14:33:37;31.10;34.20
18365;DHT22;9309;52.126;11.616;2023-06-24T14:36:04;29.70;36.30
18365;DHT22;9309;52.126;11.616;2023-06-24T14:38:30;28.90;38.20
18365;DHT22;9309;52.126;11.616;2023-06-24T14:40:57;28.70;38.60
18365;DHT22;9309;52.126;11.616;2023-06-24T14:43:24;28.30;40.10
18365;DHT22;9309;52.126;11.616;2023-06-24T14:45:50;28.30;40.00
18365;DHT22;9309;52.126;11.616;2023-06-24T14:48:17;28.60;39.40
18365;DHT22;9309;52.126;11.616;2023-06-24T14:50:45;28.50;40.40
18365;DHT22;9309;52.126;11.616;2023-06-24T14:53:12;28.10;40.10
18365;DHT22;9309;52.126;11.616;2023-06-24T14:55:38;27.90;40.80
18365;DHT22;9309;52.126;11.616;2023-06-24T14:58:05;27.50;40.00
18365;DHT22;9309;52.126;11.616;2023-06-24T15:00:31;27.50;40.70
18365;DHT22;9309;52.126;11.616;2023-06-24T15:02:58;27.60;41.80
18365;DHT22;9309;52.126;11.616;2023-06-24T15:05:25;28.00;42.80
18365;DHT22;9309;52.126;11.616;2023-06-24T15:07:53;29.10;38.70
18365;DHT22;9309;52.126;11.616;2023-06-24T15:10:20;29.90;36.50
18365;DHT22;9309;52.126;11.616;2023-06-24T15:12:47;29.80;36.20
18365;DHT22;9309;52.126;11.616;2023-06-24T15:15:14;29.80;37.10
18365;DHT22;9309;52.126;11.616;2023-06-24T15:17:41;29.10;37.00
18365;DHT22;9309;52.126;11.616;2023-06-24T15:20:11;28.40;38.50
18365;DHT22;9309;52.126;11.616;2023-06-24T15:22:38;27.70;39.50
18365;DHT22;9309;52.126;11.616;2023-06-24T15:25:07;27.20;42.00
18365;DHT22;9309;52.126;11.616;2023-06-24T15:27:34;26.90;41.40
18365;DHT22;9309;52.126;11.616;2023-06-24T15:30:01;27.00;42.10
18365;DHT22;9309;52.126;11.616;2023-06-24T15:32:28;26.80;41.40
18365;DHT22;9309;52.126;11.616;2023-06-24T15:34:54;26.50;42.40